Time;durP1;ratioP1;P1;durP2;ratioP2;P2;SDS_P1;SDS_P2;PMS_P1;PMS_P2;Temp;Humidity;BMP_temperature;BMP_pressure;BME280_temperature;BME280_humidity;BME280_pressure;Samples;Min_cycle;Max_cycle;Signal;HPM_P1;HPM_P2
2021/01/03 00:03:33;;;;;;;28.30;15.10;;;;;;;4.07;100.00;94924.03;10562075;28;20322;-74
2021/01/03 00:08:34;;;;;;;31.40;14.57;;;;;;;4.12;100.00;94932.16;10524921;28;20039;-74
2021/01/03 00:13:34;;;;;;;27.70;14.88;;;;;;;4.11;100.00;94930.50;10505904;28;20332;-74
2021/01/03 00:18:35;;;;;;;31.20;15.43;;;;;;;4.19;100.00;94932.84;10526435;28;20849;-74
2021/01/03 00:23:35;;;;;;;30.97;17.37;;;;;;;4.29;100.00;94940.28;10532101;28;20048;-74
2021/01/03 00:28:35;;;;;;;37.13;16.90;;;;;;;4.39;100.00;94931.72;10531968;28;20043;-74
2021/01/03 00:33:36;;;;;;;33.63;14.88;;;;;;;4.47;100.00;94928.72;10531504;28;20031;-74
2021/01/03 00:38:36;;;;;;;33.85;14.38;;;;;;;4.61;100.00;94913.34;10532428;28;20093;-74
2021/01/03 00:43:37;;;;;;;27.42;14.70;;;;;;;4.65;100.00;94908.34;10531632;28;20024;-74
2021/01/03 00:48:37;;;;;;;33.55;15.27;;;;;;;4.70;100.00;94925.28;10531083;28;20031;-74
2021/01/03 00:53:38;;;;;;;34.43;15.40;;;;;;;4.66;100.00;94917.97;10531550;28;20490;-74
2021/01/03 00:58:38;;;;;;;31.03;14.60;;;;;;;4.67;100.00;94909.75;10530751;28;20288;-74
2021/01/03 01:03:38;;;;;;;33.17;15.43;;;;;;;4.67;100.00;94900.97;10493263;28;20086;-76
2021/01/03 01:08:39;;;;;;;30.53;14.90;;;;;;;4.62;100.00;94905.13;10530875;28;20040;-76
2021/01/03 01:13:39;;;;;;;33.80;15.55;;;;;;;4.65;100.00;94889.72;10511644;28;20440;-76
2021/01/03 01:18:40;;;;;;;47.50;17.15;;;;;;;4.74;100.00;94883.81;10530282;28;20055;-76
2021/01/03 01:23:40;;;;;;;34.13;17.07;;;;;;;4.90;100.00;94873.53;10530734;28;20841;-76
2021/01/03 01:28:40;;;;;;;35.50;19.07;;;;;;;5.10;100.00;94863.28;10529355;28;20336;-76
2021/01/03 01:33:41;;;;;;;38.27;18.77;;;;;;;5.19;100.00;94865.56;10529842;28;20293;-76
2021/01/03 01:38:41;;;;;;;40.73;17.67;;;;;;;5.26;100.00;94852.91;10529922;28;20307;-76
2021/01/03 01:43:41;;;;;;;42.22;19.25;;;;;;;5.19;100.00;94855.75;10529684;28;20285;-76
2021/01/03 01:48:46;;;;;;;38.90;17.65;;;;;;;5.16;100.00;94850.88;10524686;28;20032;-76
2021/01/03 01:54:03;;;;;;;41.38;19.80;;;;;;;5.07;100.00;94845.09;10487010;28;20804;-76
2021/01/03 01:59:16;;;;;;;39.88;18.17;;;;;;;4.99;100.00;94847.34;10487409;28;20052;-76
2021/01/03 02:04:44;;;;;;;50.42;18.00;;;;;;;5.05;100.00;94828.56;10492047;28;20120;-76
2021/01/03 02:10:22;;;;;;;39.43;17.37;;;;;;;5.11;100.00;94829.47;10485126;28;20028;-76
2021/01/03 02:15:26;;;;;;;41.95;19.58;;;;;;;5.05;100.00;94817.09;10486601;28;20115;-76
2021/01/03 02:20:35;;;;;;;35.63;17.90;;;;;;;5.02;100.00;94815.69;10485346;28;20044;-76
2021/01/03 02:25:36;;;;;;;102.50;92.93;;;;;;;4.91;100.00;94812.03;10484469;28;20056;-77
2021/01/03 02:30:38;;;;;;;49.38;40.15;;;;;;;5.04;100.00;94818.16;10486043;28;20025;-76
2021/01/03 02:35:41;;;;;;;32.67;14.93;;;;;;;5.14;100.00;94815.69;10485337;28;20028;-77
2021/01/03 02:40:42;;;;;;;37.60;17.48;;;;;;;5.08;100.00;94811.28;10494187;28;20491;-77
2021/01/03 02:45:42;;;;;;;35.78;15.35;;;;;;;5.09;100.00;94808.41;10526746;28;20028;-77
2021/01/03 02:50:43;;;;;;;27.20;12.27;;;;;;;5.17;100.00;94804.53;10508295;28;20093;-77
2021/01/03 02:55:43;;;;;;;27.88;13.30;;;;;;;5.07;100.00;94815.81;10509034;28;20278;-76
2021/01/03 03:00:43;;;;;;;26.50;12.98;;;;;;;5.19;100.00;94817.63;10525242;28;20053;-76
2021/01/03 03:05:44;;;;;;;26.95;12.98;;;;;;;5.18;100.00;94806.16;10526495;28;20031;-77
2021/01/03 03:10:44;;;;;;;27.27;12.43;;;;;;;5.27;100.00;94814.59;10525644;28;20536;-77
2021/01/03 03:15:44;;;;;;;24.43;11.93;;;;;;;5.25;100.00;94811.34;10495548;28;20479;-77
2021/01/03 03:20:46;;;;;;;20.70;10.37;;;;;;;5.30;100.00;94804.28;10490871;28;20306;-77
2021/01/03 03:25:48;;;;;;;30.48;13.18;;;;;;;5.23;100.00;94797.44;10484165;28;20303;-77
2021/01/03 03:30:49;;;;;;;24.98;12.05;;;;;;;5.20;100.00;94797.94;10483589;28;20089;-77
2021/01/03 03:35:49;;;;;;;28.40;12.55;;;;;;;5.24;100.00;94794.53;10483769;28;20082;-77
2021/01/03 03:40:49;;;;;;;23.97;11.40;;;;;;;5.22;100.00;94794.00;10483105;28;20077;-77
2021/01/03 03:45:50;;;;;;;26.03;12.97;;;;;;;5.19;100.00;94794.47;10484147;28;20542;-77
2021/01/03 03:50:50;;;;;;;23.05;12.57;;;;;;;5.33;100.00;94789.66;10484283;28;20294;-77
2021/01/03 03:55:53;;;;;;;27.17;12.82;;;;;;;5.46;100.00;94796.56;10490512;28;20036;-77
2021/01/03 04:00:53;;;;;;;22.50;11.50;;;;;;;5.36;100.00;94793.69;10490675;28;20082;-77
2021/01/03 04:05:53;;;;;;;22.00;12.17;;;;;;;5.44;100.00;94790.63;10510390;28;20547;-77
2021/01/03 04:10:54;;;;;;;21.73;12.17;;;;;;;5.41;100.00;94785.78;10532194;28;20308;-76
2021/01/03 04:15:55;;;;;;;21.10;10.30;;;;;;;5.23;100.00;94784.94;10533165;28;20335;-76
2021/01/03 04:20:55;;;;;;;28.17;11.47;;;;;;;5.13;100.00;94782.06;10532751;28;20051;-77
2021/01/03 04:25:56;;;;;;;21.65;9.85;;;;;;;5.09;100.00;94787.09;10532213;28;20032;-76
2021/01/03 04:30:56;;;;;;;20.40;9.93;;;;;;;5.04;100.00;94784.31;10532546;28;20090;-77
2021/01/03 04:35:56;;;;;;;19.13;10.68;;;;;;;5.18;100.00;94797.34;10532356;28;20288;-76
2021/01/03 04:40:57;;;;;;;26.77;13.17;;;;;;;5.29;100.00;94794.66;10531270;28;20012;-77
2021/01/03 04:46:03;;;;;;;24.23;12.05;;;;;;;5.37;100.00;94795.31;10509543;28;20032;-77
2021/01/03 04:51:25;;;;;;;21.10;11.25;;;;;;;5.48;100.00;94794.44;10532115;28;20028;-77
2021/01/03 04:56:41;;;;;;;21.65;11.00;;;;;;;5.42;100.00;94800.75;10513209;28;20051;-77
2021/01/03 05:02:05;;;;;;;23.65;11.00;;;;;;;5.51;100.00;94795.81;10512473;28;20027;-77
2021/01/03 05:07:12;;;;;;;22.65;10.00;;;;;;;5.50;100.00;94795.03;10511634;28;20031;-77
2021/01/03 05:12:15;;;;;;;15.65;9.38;;;;;;;5.53;100.00;94794.53;10512202;28;20020;-77
2021/01/03 05:17:15;;;;;;;19.95;9.52;;;;;;;5.66;100.00;94790.75;10488267;28;20077;-77
2021/01/03 05:22:28;;;;;;;19.85;9.70;;;;;;;5.77;100.00;94791.75;10478682;28;20127;-77
2021/01/03 05:27:29;;;;;;;17.92;10.57;;;;;;;5.87;100.00;94791.91;10527403;28;20751;-78
2021/01/03 05:32:33;;;;;;;15.95;8.48;;;;;;;5.99;100.00;94787.31;10469325;28;20035;-74
2021/01/03 05:37:41;;;;;;;19.00;9.98;;;;;;;6.06;100.00;94787.19;10486762;28;20043;-74
2021/01/03 05:42:41;;;;;;;16.45;8.00;;;;;;;6.18;100.00;94792.41;10487436;28;20857;-74
2021/01/03 05:47:56;;;;;;;16.23;8.82;;;;;;;6.30;100.00;94795.78;10486686;28;20025;-74
2021/01/03 05:53:08;;;;;;;19.63;10.80;;;;;;;6.41;100.00;94804.78;10486563;28;20025;-74
2021/01/03 05:58:12;;;;;;;21.17;10.68;;;;;;;6.45;100.00;94805.09;10486985;28;20028;-74
2021/01/03 06:03:12;;;;;;;20.10;9.48;;;;;;;6.44;100.00;94811.47;10488636;28;20020;-74
2021/01/03 06:08:25;;;;;;;20.57;11.17;;;;;;;6.35;100.00;94804.94;10528738;28;20383;-74
2021/01/03 06:13:26;;;;;;;19.95;11.30;;;;;;;6.35;100.00;94805.75;10527738;28;20383;-74
2021/01/03 06:18:41;;;;;;;24.05;11.50;;;;;;;6.32;100.00;94814.22;10500508;28;20093;-75
2021/01/03 06:23:53;;;;;;;23.23;12.18;;;;;;;6.39;100.00;94814.91;10496787;28;20029;-74
2021/01/03 06:28:55;;;;;;;26.52;12.23;;;;;;;6.47;100.00;94811.00;10486782;28;20032;-74
2021/01/03 06:34:35;;;;;;;105.55;96.28;;;;;;;6.37;100.00;94817.00;10486233;28;20029;-74
2021/01/03 06:39:59;;;;;;;331.73;272.98;;;;;;;6.39;100.00;94840.75;10493624;28;20028;-74
2021/01/03 06:45:24;;;;;;;26.50;11.43;;;;;;;6.43;100.00;94836.56;10527354;28;20061;-74
2021/01/03 06:50:33;;;;;;;670.50;437.75;;;;;;;6.47;100.00;94840.34;10495684;28;20039;-74
2021/01/03 06:55:39;;;;;;;24.10;12.85;;;;;;;6.43;100.00;94820.53;10492168;28;20031;-73
2021/01/03 07:00:56;;;;;;;29.67;14.07;;;;;;;6.47;100.00;94840.34;10526593;28;20119;-73
2021/01/03 07:06:09;;;;;;;27.20;14.55;;;;;;;6.27;100.00;94844.34;10526812;28;20475;-74
2021/01/03 07:11:45;;;;;;;28.63;13.35;;;;;;;6.25;100.00;94841.13;10526510;28;20399;-74
2021/01/03 07:16:55;;;;;;;35.60;14.25;;;;;;;6.08;100.00;94851.75;10501532;28;20044;-75
2021/01/03 07:22:07;;;;;;;34.15;16.00;;;;;;;6.07;100.00;94839.50;10493198;28;20071;-75
2021/01/03 07:27:16;;;;;;;33.08;15.60;;;;;;;6.02;100.00;94846.59;10499806;28;20812;-75
2021/01/03 07:32:18;;;;;;;37.45;14.88;;;;;;;5.97;100.00;94825.94;10498918;28;20093;-74
2021/01/03 07:37:24;;;;;;;259.13;150.65;;;;;;;5.80;100.00;94818.75;10513953;28;20036;-73
2021/01/03 07:42:28;;;;;;;37.75;18.83;;;;;;;5.73;100.00;94817.28;10507238;28;20028;-73
2021/01/03 07:47:38;;;;;;;38.10;18.02;;;;;;;5.73;100.00;94822.59;10486388;28;20028;-73
2021/01/03 07:52:40;;;;;;;29.00;14.15;;;;;;;5.73;100.00;94825.28;10506805;28;20545;-73
2021/01/03 07:57:40;;;;;;;27.45;14.45;;;;;;;5.80;100.00;94817.94;10477102;28;20033;-74
2021/01/03 08:02:42;;;;;;;26.40;13.10;;;;;;;5.89;100.00;94816.50;10503763;28;20024;-74
2021/01/03 08:07:42;;;;;;;23.02;11.32;;;;;;;5.91;100.00;94827.72;10497790;28;20124;-73
2021/01/03 08:13:00;;;;;;;362.13;237.40;;;;;;;6.02;100.00;94835.94;10498745;28;20062;-75
2021/01/03 08:18:21;;;;;;;20.90;10.65;;;;;;;6.15;100.00;94857.78;10485475;28;20082;-74
2021/01/03 08:23:34;;;;;;;28.05;12.50;;;;;;;6.55;100.00;94866.66;10496769;28;20044;-74
2021/01/03 08:28:47;;;;;;;25.55;12.40;;;;;;;6.85;100.00;94849.44;10488038;28;20196;-74
2021/01/03 08:33:51;;;;;;;23.42;13.63;;;;;;;7.07;100.00;94873.50;10521714;28;20032;-73
2021/01/03 08:38:53;;;;;;;26.00;11.45;;;;;;;7.22;100.00;94872.91;10521618;28;20039;-73
2021/01/03 08:43:55;;;;;;;551.95;403.42;;;;;;;7.46;100.00;94886.81;10527771;28;20024;-73
2021/01/03 08:49:07;;;;;;;36.53;16.77;;;;;;;7.57;100.00;94881.59;10506766;28;20031;-74
2021/01/03 08:54:11;;;;;;;29.85;14.02;;;;;;;7.68;100.00;94886.81;10527732;28;20028;-73
2021/01/03 08:59:15;;;;;;;29.50;15.60;;;;;;;7.72;100.00;94891.66;10527248;28;20035;-73
2021/01/03 09:04:19;;;;;;;25.73;14.45;;;;;;;7.81;100.00;94877.56;10525452;28;20031;-74
2021/01/03 09:09:23;;;;;;;26.20;14.27;;;;;;;7.70;100.00;94895.41;10527611;28;20020;-74
2021/01/03 09:14:26;;;;;;;30.13;13.60;;;;;;;7.72;100.00;94905.00;10509559;28;20468;-74
2021/01/03 09:19:49;;;;;;;28.77;12.98;;;;;;;7.78;100.00;94910.19;10523108;28;20052;-74
2021/01/03 09:24:57;;;;;;;31.48;12.02;;;;;;;7.93;100.00;94885.47;10522714;28;20035;-73
2021/01/03 09:30:20;;;;;;;24.55;12.65;;;;;;;8.06;100.00;94889.59;10524241;28;20027;-72
2021/01/03 09:36:00;;;;;;;26.85;12.77;;;;;;;8.27;100.00;94869.16;10519625;28;20090;-73
2021/01/03 09:41:55;;;;;;;25.83;11.38;;;;;;;9.12;100.00;94863.06;10524770;28;20077;-74
2021/01/03 09:47:03;;;;;;;20.15;10.25;;;;;;;10.16;100.00;94872.22;10426255;28;20166;-74
2021/01/03 09:52:03;;;;;;;;;;;;;;;10.03;100.00;94862.81;10524385;28;20028;-74
2021/01/03 09:57:04;;;;;;;18.92;9.15;;;;;;;9.52;100.00;94867.00;10525785;28;19912;-74
2021/01/03 10:02:18;;;;;;;18.50;10.60;;;;;;;9.16;100.00;94861.47;10524074;28;20035;-73
2021/01/03 10:07:26;;;;;;;20.90;11.07;;;;;;;9.02;100.00;94842.38;10521714;28;20056;-73
2021/01/03 10:12:34;;;;;;;20.20;11.23;;;;;;;8.88;100.00;94851.97;10524128;28;20028;-73
2021/01/03 10:17:35;;;;;;;24.42;11.77;;;;;;;8.94;100.00;94842.88;10523228;28;20387;-73
2021/01/03 10:22:42;;;;;;;19.92;11.18;;;;;;;8.72;100.00;94848.34;10521281;28;20458;-73
2021/01/03 10:28:01;;;;;;;22.83;10.85;;;;;;;8.58;100.00;94837.28;10485896;28;20020;-73
2021/01/03 10:33:03;;;;;;;20.85;10.90;;;;;;;8.57;100.00;94846.41;10485018;28;20031;-73
2021/01/03 10:38:05;;;;;;;22.13;11.48;;;;;;;8.70;100.00;94821.81;10510315;28;20059;-73
2021/01/03 10:43:06;;;;;;;22.50;12.00;;;;;;;8.66;100.00;94839.47;10525564;28;21611;-72
2021/01/03 10:48:07;;;;;;;22.88;11.50;;;;;;;8.78;100.00;94844.66;10530209;28;20035;-73
2021/01/03 10:53:07;;;;;;;24.90;11.88;;;;;;;8.58;100.00;94823.88;10522833;28;20467;-73
2021/01/03 10:58:08;;;;;;;25.98;12.57;;;;;;;8.61;100.00;94836.78;10525060;28;20074;-73
2021/01/03 11:03:08;;;;;;;23.53;12.60;;;;;;;8.51;100.00;94807.25;10525907;28;20072;-73
2021/01/03 11:08:08;;;;;;;23.50;12.30;;;;;;;8.74;100.00;94802.56;10524431;28;20487;-73
2021/01/03 11:13:09;;;;;;;19.43;10.83;;;;;;;10.17;100.00;94795.97;10526625;28;20523;-74
2021/01/03 11:18:09;;;;;;;22.33;11.60;;;;;;;10.17;100.00;94810.22;10526078;28;20052;-75
2021/01/03 11:23:10;;;;;;;25.50;11.43;;;;;;;11.00;100.00;94808.25;10525220;28;20024;-76
2021/01/03 11:28:11;;;;;;;23.02;12.20;;;;;;;10.82;100.00;94800.78;10526479;28;20134;-73
2021/01/03 11:33:12;;;;;;;23.73;11.75;;;;;;;9.92;100.00;94808.31;10525106;28;20050;-74
2021/01/03 11:38:12;;;;;;;19.58;11.05;;;;;;;9.35;100.00;94813.56;10523618;28;20028;-73
2021/01/03 11:43:12;;;;;;;20.67;11.63;;;;;;;8.97;100.00;94804.84;10525589;28;20023;-73
2021/01/03 11:48:13;;;;;;;17.90;9.53;;;;;;;11.26;100.00;94792.81;10521826;28;20028;-74
2021/01/03 11:53:13;;;;;;;16.17;8.73;;;;;;;12.06;100.00;94787.56;10513070;28;20112;-74
2021/01/03 11:58:13;;;;;;;14.03;7.33;;;;;;;12.63;100.00;94782.47;10482097;28;20036;-73
2021/01/03 12:03:14;;;;;;;13.23;7.00;;;;;;;12.52;97.34;94789.06;10482843;28;20028;-74
2021/01/03 12:08:14;;;;;;;16.60;8.67;;;;;;;12.58;100.00;94777.91;10519185;28;20036;-73
2021/01/03 12:13:15;;;;;;;17.25;9.80;;;;;;;12.29;100.00;94777.91;10522610;28;20503;-73
2021/01/03 12:18:15;;;;;;;17.30;9.70;;;;;;;11.93;100.00;94778.16;10532556;28;20048;-74
2021/01/03 12:23:16;;;;;;;16.73;9.80;;;;;;;11.33;100.00;94778.25;10532904;28;21164;-74
2021/01/03 12:28:16;;;;;;;16.92;9.80;;;;;;;11.36;100.00;94775.00;10514292;28;20038;-73
2021/01/03 12:33:16;;;;;;;20.63;11.60;;;;;;;10.96;100.00;94782.97;10493223;28;20028;-73
2021/01/03 12:38:17;;;;;;;20.60;10.40;;;;;;;11.00;100.00;94786.72;10489976;28;20146;-73
2021/01/03 12:43:17;;;;;;;18.57;10.43;;;;;;;10.84;100.00;94791.38;10489526;28;20708;-73
2021/01/03 12:48:17;;;;;;;19.33;11.03;;;;;;;10.76;100.00;94802.66;10490170;28;20335;-73
2021/01/03 12:53:18;;;;;;;25.63;13.03;;;;;;;10.75;100.00;94809.91;10489285;28;20642;-73
2021/01/03 12:58:18;;;;;;;18.00;10.40;;;;;;;10.68;100.00;94797.84;10489429;28;20278;-73
2021/01/03 13:03:18;;;;;;;24.33;11.27;;;;;;;10.52;100.00;94803.25;10489793;28;20063;-73
2021/01/03 13:08:19;;;;;;;23.73;11.37;;;;;;;10.34;100.00;94811.81;10470958;28;20036;-72
2021/01/03 13:13:19;;;;;;;20.43;10.37;;;;;;;10.27;100.00;94807.53;10488657;28;20032;-72
2021/01/03 13:18:20;;;;;;;19.73;11.03;;;;;;;10.16;100.00;94813.16;10515527;28;20055;-75
2021/01/03 13:23:20;;;;;;;22.20;12.03;;;;;;;10.03;100.00;94804.56;10530364;28;20077;-75
2021/01/03 13:28:21;;;;;;;21.60;11.18;;;;;;;9.86;100.00;94806.69;10529807;28;20822;-74
2021/01/03 13:33:22;;;;;;;25.60;12.95;;;;;;;9.79;100.00;94804.25;10530001;28;20040;-74
2021/01/03 13:38:22;;;;;;;23.92;10.90;;;;;;;9.60;100.00;94797.78;10529895;28;20027;-74
2021/01/03 13:43:23;;;;;;;16.30;8.63;;;;;;;9.27;100.00;94811.38;10530236;28;20080;-75
2021/01/03 13:48:23;;;;;;;20.03;8.47;;;;;;;8.93;100.00;94811.78;10529402;28;20110;-73
2021/01/03 13:53:23;;;;;;;15.18;8.35;;;;;;;8.61;100.00;94818.03;10529108;28;20075;-73
2021/01/03 13:58:24;;;;;;;16.60;8.63;;;;;;;8.45;100.00;94816.31;10511193;28;20028;-73
2021/01/03 14:03:24;;;;;;;21.43;9.23;;;;;;;8.27;100.00;94812.13;10528536;28;20301;-73
2021/01/03 14:08:24;;;;;;;20.53;10.87;;;;;;;8.26;100.00;94803.31;10486870;28;20036;-73
2021/01/03 14:13:25;;;;;;;14.43;8.60;;;;;;;8.20;100.00;94804.31;10486241;28;20041;-74
2021/01/03 14:18:25;;;;;;;18.93;9.80;;;;;;;8.10;100.00;94805.03;10486211;28;20048;-74
2021/01/03 14:23:25;;;;;;;18.40;8.90;;;;;;;7.87;100.00;94824.94;10468467;28;20064;-74
2021/01/03 14:28:26;;;;;;;15.93;8.70;;;;;;;7.77;100.00;94820.31;10486357;28;20032;-73
2021/01/03 14:33:29;;;;;;;19.40;8.17;;;;;;;7.68;100.00;94832.50;10519742;28;20032;-75
2021/01/03 14:38:31;;;;;;;16.00;8.50;;;;;;;7.55;100.00;94840.91;10489979;28;20460;-74
2021/01/03 14:43:38;;;;;;;18.95;9.60;;;;;;;7.46;100.00;94843.22;10517003;28;20024;-74
2021/01/03 14:48:50;;;;;;;24.05;8.05;;;;;;;7.35;100.00;94848.47;10485478;28;20392;-75
2021/01/03 14:53:56;;;;;;;11.23;7.35;;;;;;;7.07;100.00;94840.63;10524252;28;20031;-75
2021/01/03 14:58:57;;;;;;;14.02;8.13;;;;;;;6.95;100.00;94840.75;10517365;28;20106;-73
2021/01/03 15:04:29;;;;;;;9.97;6.90;;;;;;;6.97;100.00;94852.81;10507632;28;20024;-75
2021/01/03 15:09:31;;;;;;;11.02;6.63;;;;;;;6.78;100.00;94860.31;10503204;28;20027;-75
2021/01/03 15:14:32;;;;;;;8.82;5.40;;;;;;;6.55;100.00;94855.97;10522181;28;20032;-73
2021/01/03 15:19:49;;;;;;;11.77;6.95;;;;;;;6.31;100.00;94855.34;10505197;28;20426;-73
2021/01/03 15:24:52;;;;;;;14.30;6.43;;;;;;;6.11;100.00;94845.13;10521200;28;20125;-74
2021/01/03 15:29:53;;;;;;;14.50;7.93;;;;;;;6.02;100.00;94849.28;10521601;28;20027;-74
2021/01/03 15:35:00;;;;;;;11.30;7.03;;;;;;;5.93;100.00;94860.31;10521695;28;20769;-73
2021/01/03 15:40:00;;;;;;;12.07;6.88;;;;;;;5.85;100.00;94865.19;10520021;28;20027;-77
2021/01/03 15:45:29;;;;;;;16.77;8.23;;;;;;;5.83;100.00;94865.44;10519249;28;20047;-77
2021/01/03 15:50:30;;;;;;;16.63;8.65;;;;;;;5.74;100.00;94870.38;10517700;28;20548;-77
2021/01/03 15:55:30;;;;;;;16.13;8.57;;;;;;;5.73;100.00;94860.75;10522993;28;20082;-76
2021/01/03 16:00:31;;;;;;;17.25;8.55;;;;;;;5.75;100.00;94873.81;10528978;28;20028;-76
2021/01/03 16:05:36;;;;;;;10.50;7.20;;;;;;;5.65;100.00;94879.78;10531135;28;20036;-76
2021/01/03 16:10:37;;;;;;;17.38;9.13;;;;;;;5.74;100.00;94886.38;10511497;28;20492;-76
2021/01/03 16:15:38;;;;;;;14.10;7.60;;;;;;;5.70;100.00;94887.09;10512358;28;20205;-76
2021/01/03 16:20:38;;;;;;;13.05;7.45;;;;;;;5.73;100.00;94889.28;10515337;28;20050;-77
2021/01/03 16:25:42;;;;;;;14.10;7.10;;;;;;;5.63;100.00;94903.22;10504330;28;20445;-78
2021/01/03 16:30:56;;;;;;;18.98;10.50;;;;;;;5.51;100.00;94900.59;10501228;28;20047;-77
2021/01/03 16:36:15;;;;;;;14.07;8.57;;;;;;;5.50;100.00;94898.97;10488673;28;20031;-77
2021/01/03 16:41:38;;;;;;;15.77;9.40;;;;;;;5.46;100.00;94889.84;10486928;28;20077;-77
2021/01/03 16:47:01;;;;;;;16.10;9.52;;;;;;;5.56;100.00;94889.22;10486363;28;20035;-77
2021/01/03 16:52:23;;;;;;;16.30;8.77;;;;;;;5.40;100.00;94894.25;10468226;28;20827;-77
2021/01/03 16:57:54;;;;;;;16.45;9.05;;;;;;;5.34;100.00;94913.03;10502007;28;20028;-77
2021/01/03 17:03:11;;;;;;;18.90;8.75;;;;;;;5.17;100.00;94912.97;10501361;28;20057;-77
2021/01/03 17:08:36;;;;;;;19.17;9.23;;;;;;;5.19;100.00;94901.03;10464047;28;20032;-77
2021/01/03 17:14:02;;;;;;;11.18;6.70;;;;;;;5.12;100.00;94897.66;10483215;28;20043;-77
2021/01/03 17:19:17;;;;;;;16.05;8.27;;;;;;;5.14;100.00;94903.59;10479152;28;20110;-76
2021/01/03 17:24:29;;;;;;;11.07;6.25;;;;;;;5.07;100.00;94902.91;10521392;28;20450;-77
2021/01/03 17:29:50;;;;;;;11.90;6.63;;;;;;;4.97;100.00;94901.63;10470990;28;20040;-77
2021/01/03 17:34:51;;;;;;;11.85;6.43;;;;;;;4.91;100.00;94905.25;10503287;28;20407;-77
2021/01/03 17:39:55;;;;;;;11.80;5.90;;;;;;;4.89;100.00;94906.53;10527389;28;20040;-77
2021/01/03 17:45:04;;;;;;;12.52;6.30;;;;;;;4.91;100.00;94904.41;10508099;28;20758;-76
2021/01/03 17:50:17;;;;;;;11.10;6.97;;;;;;;4.88;100.00;94897.69;10500864;28;20454;-78
2021/01/03 17:55:18;;;;;;;12.93;7.05;;;;;;;4.88;100.00;94897.69;10523820;28;20028;-77
2021/01/03 18:00:20;;;;;;;12.55;7.28;;;;;;;4.88;100.00;94903.03;10498062;28;20027;-77
2021/01/03 18:05:21;;;;;;;13.18;8.13;;;;;;;4.95;100.00;94908.25;10528545;28;20114;-77
2021/01/03 18:10:22;;;;;;;15.55;7.97;;;;;;;4.86;100.00;94902.47;10476834;28;20028;-77
2021/01/03 18:15:23;;;;;;;14.10;7.80;;;;;;;4.85;100.00;94903.50;10501621;28;20086;-77
2021/01/03 18:20:24;;;;;;;10.75;6.80;;;;;;;4.83;100.00;94907.44;10505944;28;20427;-77
2021/01/03 18:25:24;;;;;;;11.65;6.78;;;;;;;4.84;100.00;94907.19;10496084;28;20028;-78
2021/01/03 18:30:26;;;;;;;17.95;9.48;;;;;;;4.92;100.00;94908.72;10506268;28;20067;-76
2021/01/03 18:35:39;;;;;;;21.63;11.10;;;;;;;4.77;100.00;94914.50;10504796;28;20544;-75
2021/01/03 18:40:42;;;;;;;17.60;11.68;;;;;;;4.83;100.00;94902.94;10498339;28;20016;-76
2021/01/03 18:45:43;;;;;;;19.08;10.25;;;;;;;4.81;100.00;94918.31;10528003;28;20032;-76
2021/01/03 18:50:43;;;;;;;17.02;9.63;;;;;;;4.81;100.00;94917.53;10527061;28;20020;-76
2021/01/03 18:55:44;;;;;;;16.67;9.43;;;;;;;4.81;100.00;94923.66;10492658;28;20028;-76
2021/01/03 19:00:44;;;;;;;10.15;6.65;;;;;;;4.82;100.00;94933.25;10504987;28;20295;-76
2021/01/03 19:05:44;;;;;;;11.93;6.13;;;;;;;4.87;100.00;94927.22;10519807;28;20537;-76
2021/01/03 19:10:46;;;;;;;11.50;6.93;;;;;;;4.94;100.00;94931.41;10488421;28;20768;-76
2021/01/03 19:15:46;;;;;;;8.82;5.45;;;;;;;5.01;100.00;94917.97;10506145;28;20668;-76
2021/01/03 19:20:47;;;;;;;6.83;4.10;;;;;;;5.06;100.00;94915.41;10512587;28;20054;-76
2021/01/03 19:25:48;;;;;;;9.80;5.10;;;;;;;5.13;100.00;94910.78;10516385;28;20818;-76
2021/01/03 19:30:48;;;;;;;8.88;5.80;;;;;;;5.16;100.00;94895.34;10505500;28;20104;-76
2021/01/03 19:35:49;;;;;;;6.87;4.67;;;;;;;5.24;100.00;94885.13;10513379;28;20069;-76
2021/01/03 19:40:49;;;;;;;6.93;4.25;;;;;;;5.30;100.00;94889.53;10512409;28;20882;-76
2021/01/03 19:45:50;;;;;;;7.35;4.85;;;;;;;5.30;100.00;94894.03;10512405;28;20042;-76
2021/01/03 19:50:51;;;;;;;8.60;5.63;;;;;;;5.32;100.00;94881.31;10496932;28;20040;-76
2021/01/03 19:55:51;;;;;;;9.40;5.65;;;;;;;5.41;100.00;94893.19;10521475;28;20083;-76
2021/01/03 20:00:51;;;;;;;8.33;6.27;;;;;;;5.48;100.00;94895.72;10517215;28;20030;-76
2021/01/03 20:05:52;;;;;;;8.63;6.10;;;;;;;5.55;100.00;94908.94;10514971;28;20336;-75
2021/01/03 20:10:52;;;;;;;9.63;5.47;;;;;;;5.53;100.00;94906.50;10503212;28;20708;-75
2021/01/03 20:15:53;;;;;;;9.03;5.87;;;;;;;5.61;100.00;94916.78;10498077;28;20028;-76
2021/01/03 20:20:53;;;;;;;12.37;6.30;;;;;;;5.67;100.00;94931.03;10499067;28;20072;-75
2021/01/03 20:25:53;;;;;;;10.43;6.83;;;;;;;5.78;100.00;94942.72;10516745;28;20281;-75
2021/01/03 20:30:54;;;;;;;12.98;7.10;;;;;;;5.86;100.00;94928.16;10521806;28;20290;-75
2021/01/03 20:35:54;;;;;;;9.83;6.07;;;;;;;5.93;100.00;94919.00;10527340;28;20036;-75
2021/01/03 20:40:55;;;;;;;7.53;5.23;;;;;;;5.99;100.00;94912.72;10495179;28;20817;-75
2021/01/03 20:45:55;;;;;;;37.22;21.55;;;;;;;5.99;100.00;94899.38;10487438;28;20032;-75
2021/01/03 20:50:55;;;;;;;11.13;6.30;;;;;;;5.93;100.00;94912.81;10488212;28;20369;-75
2021/01/03 20:55:56;;;;;;;10.27;5.85;;;;;;;5.96;100.00;94905.16;10474503;28;20120;-75
2021/01/03 21:00:56;;;;;;;13.37;6.83;;;;;;;5.82;100.00;94899.31;10504752;28;20027;-75
2021/01/03 21:05:56;;;;;;;13.13;7.30;;;;;;;5.87;100.00;94892.47;10498088;28;20769;-75
2021/01/03 21:10:57;;;;;;;13.50;7.53;;;;;;;5.89;100.00;94882.34;10504927;28;20078;-76
2021/01/03 21:15:57;;;;;;;14.85;7.40;;;;;;;6.03;100.00;94888.22;10529488;28;21159;-76
2021/01/03 21:20:58;;;;;;;15.50;6.85;;;;;;;5.92;100.00;94908.56;10509354;28;20044;-76
2021/01/03 21:26:29;;;;;;;13.53;7.17;;;;;;;5.88;100.00;94878.09;10515981;28;20411;-76
2021/01/03 21:31:41;;;;;;;12.18;7.65;;;;;;;5.86;100.00;94891.66;10488566;28;20291;-76
2021/01/03 21:36:46;;;;;;;16.77;7.95;;;;;;;5.87;100.00;94885.25;10469607;28;20529;-75
2021/01/03 21:41:59;;;;;;;14.70;7.82;;;;;;;5.93;100.00;94878.97;10488262;28;20020;-76
2021/01/03 21:47:15;;;;;;;17.23;9.55;;;;;;;5.92;100.00;94873.88;10470915;28;20028;-75
2021/01/03 21:52:37;;;;;;;17.40;8.95;;;;;;;5.97;100.00;94888.16;10486779;28;20028;-76
2021/01/03 21:58:05;;;;;;;17.90;9.85;;;;;;;6.09;100.00;94908.63;10495900;28;20887;-79
2021/01/03 22:03:14;;;;;;;17.45;9.07;;;;;;;6.23;100.00;94911.78;10515430;28;20062;-80
2021/01/03 22:08:38;;;;;;;14.13;9.93;;;;;;;6.27;100.00;94896.91;10530169;28;20107;-79
2021/01/03 22:13:57;;;;;;;17.83;10.30;;;;;;;6.29;100.00;94897.47;10529864;28;20039;-80
2021/01/03 22:19:03;;;;;;;;;;;;;;;5.97;100.00;94882.81;10530429;28;20127;-79
2021/01/03 22:24:16;;;;;;;18.17;10.02;;;;;;;5.99;100.00;94867.34;10529364;28;19911;-80
2021/01/03 22:29:36;;;;;;;16.30;9.20;;;;;;;5.96;100.00;94859.81;10529808;28;20024;-80
2021/01/03 22:34:42;;;;;;;20.27;10.82;;;;;;;5.80;100.00;94865.94;10511266;28;20062;-80
2021/01/03 22:39:56;;;;;;;18.73;10.10;;;;;;;5.97;100.00;94856.13;10528415;28;20414;-79
2021/01/03 22:45:08;;;;;;;18.05;11.05;;;;;;;6.07;100.00;94868.84;10528040;28;20040;-79
2021/01/03 22:50:51;;;;;;;18.77;10.45;;;;;;;6.16;100.00;94864.69;10528635;28;20403;-79
2021/01/03 22:56:09;;;;;;;18.88;10.88;;;;;;;6.21;100.00;94856.00;10528469;28;20032;-79
2021/01/03 23:01:16;;;;;;;20.65;11.40;;;;;;;6.35;100.00;94845.81;10509369;28;20031;-80
2021/01/03 23:06:38;;;;;;;19.48;11.40;;;;;;;6.25;100.00;94842.94;10528547;28;20036;-79
2021/01/03 23:11:54;;;;;;;23.48;12.75;;;;;;;6.01;100.00;94828.97;10528320;28;20028;-79
2021/01/03 23:17:21;;;;;;;22.60;11.75;;;;;;;5.77;100.00;94823.75;10529154;28;20556;-79